createdAt,value
2022-09-21T00:05:33.262Z,10.85
2022-09-21T00:12:16.537Z,10.20
2022-09-21T00:18:59.724Z,11.13
2022-09-21T00:25:43.281Z,12.75
2022-09-21T00:32:25.583Z,9.82
2022-09-21T00:39:09.627Z,12.05
2022-09-21T00:46:00.239Z,8.18
2022-09-21T00:52:47.990Z,8.38
2022-09-21T00:59:37.301Z,8.95
2022-09-21T01:06:21.071Z,7.65
2022-09-21T01:13:41.683Z,13.43
2022-09-21T01:21:02.537Z,8.05
2022-09-21T01:27:59.775Z,11.23
2022-09-21T01:34:58.238Z,10.57
2022-09-21T01:41:42.994Z,10.75
2022-09-21T01:48:25.966Z,10.88
2022-09-21T01:55:17.570Z,10.73
2022-09-21T02:02:13.478Z,8.77
2022-09-21T02:08:56.329Z,8.35
2022-09-21T02:15:47.842Z,11.07
2022-09-21T02:22:45.232Z,8.80
2022-09-21T02:29:43.592Z,11.00
2022-09-21T02:36:35.573Z,8.00
2022-09-21T02:43:39.078Z,9.73
2022-09-21T02:50:33.423Z,8.18
2022-09-21T02:57:18.078Z,7.20
2022-09-21T03:04:00.569Z,9.60
2022-09-21T03:10:43.132Z,8.95
2022-09-21T03:17:25.999Z,12.30
2022-09-21T03:24:08.340Z,16.13
2022-09-21T03:30:51.740Z,11.52
2022-09-21T03:37:36.106Z,14.63
2022-09-21T03:44:22.174Z,12.40
2022-09-21T03:51:04.601Z,14.07
2022-09-21T03:57:47.605Z,11.52
2022-09-21T04:04:29.897Z,9.70
2022-09-21T04:11:18.461Z,13.23
2022-09-21T04:18:00.801Z,8.77
2022-09-21T04:24:43.101Z,7.13
2022-09-21T04:31:30.269Z,12.55
2022-09-21T04:38:13.871Z,11.27
2022-09-21T04:44:56.250Z,11.88
2022-09-21T04:51:39.034Z,9.98
2022-09-21T04:58:24.651Z,17.02
2022-09-21T05:05:07.437Z,11.32
2022-09-21T05:11:49.876Z,11.18
2022-09-21T05:18:32.222Z,13.68
2022-09-21T05:25:14.698Z,10.57
2022-09-21T05:32:23.544Z,14.52
2022-09-21T05:39:06.976Z,11.63
2022-09-21T05:45:58.762Z,15.90
2022-09-21T05:53:11.877Z,10.48
2022-09-21T06:00:12.263Z,15.00
2022-09-21T06:06:54.568Z,14.85
2022-09-21T06:13:37.459Z,12.18
2022-09-21T06:20:19.776Z,30.27
2022-09-21T06:27:02.118Z,17.63
2022-09-21T06:33:48.029Z,10.50
2022-09-21T06:40:31.838Z,10.77
2022-09-21T06:47:14.150Z,9.65
2022-09-21T06:53:58.102Z,8.15
2022-09-21T07:00:40.453Z,10.23
2022-09-21T07:07:22.992Z,9.32
2022-09-21T07:14:05.492Z,8.43
2022-09-21T07:20:49.114Z,10.40
2022-09-21T07:27:33.138Z,7.32
2022-09-21T07:34:15.449Z,10.70
2022-09-21T07:41:02.561Z,8.82
2022-09-21T07:47:46.315Z,7.32
2022-09-21T07:54:28.807Z,9.70
2022-09-21T08:01:11.832Z,7.25
2022-09-21T08:07:57.990Z,8.30
2022-09-21T08:14:40.555Z,8.02
2022-09-21T08:21:23.043Z,9.15
2022-09-21T08:28:09.600Z,8.20
2022-09-21T08:34:52.190Z,6.05
2022-09-21T08:41:46.481Z,4.10
2022-09-21T08:48:36.448Z,4.28
2022-09-21T08:55:20.736Z,4.65
2022-09-21T09:02:17.989Z,3.83
2022-09-21T09:09:19.102Z,4.85
2022-09-21T09:16:06.214Z,3.00
2022-09-21T09:23:20.719Z,3.53
2022-09-21T09:30:10.962Z,3.38
2022-09-21T09:37:15.190Z,4.07
2022-09-21T09:44:46.770Z,2.78
2022-09-21T09:51:29.455Z,1.70
2022-09-21T09:58:21.855Z,4.43
2022-09-21T10:05:06.534Z,3.75
2022-09-21T10:11:49.328Z,3.63
2022-09-21T10:19:01.355Z,3.35
2022-09-21T10:25:43.792Z,3.75
2022-09-21T10:32:28.175Z,4.25
2022-09-21T10:39:31.284Z,5.03
2022-09-21T10:46:14.373Z,3.97
2022-09-21T10:53:18.335Z,3.45
2022-09-21T11:00:37.715Z,5.32
2022-09-21T11:07:34.272Z,3.13
2022-09-21T11:14:45.277Z,2.10
2022-09-21T11:21:41.745Z,3.05
2022-09-21T11:28:35.743Z,2.88
2022-09-21T11:35:43.572Z,4.72
2022-09-21T11:43:01.637Z,1.48
2022-09-21T11:49:43.904Z,2.05
2022-09-21T11:56:36.429Z,1.58
2022-09-21T12:03:35.540Z,3.28
2022-09-21T12:10:57.208Z,2.78
2022-09-21T12:18:32.463Z,2.03
2022-09-21T12:25:27.300Z,2.00
2022-09-21T12:32:25.198Z,1.73
2022-09-21T12:39:22.909Z,1.52
2022-09-21T12:46:25.386Z,1.23
2022-09-21T12:53:14.699Z,1.55
2022-09-21T13:00:08.041Z,2.40
2022-09-21T13:07:21.022Z,1.20
2022-09-21T13:14:04.704Z,1.17
2022-09-21T13:20:48.167Z,1.10
2022-09-21T13:28:16.636Z,1.65
2022-09-21T13:35:37.386Z,6.55
2022-09-21T13:42:34.919Z,2.10
2022-09-21T13:49:23.492Z,1.30
2022-09-21T13:56:18.006Z,1.40
2022-09-21T14:03:23.069Z,1.20
2022-09-21T14:10:08.228Z,1.10
2022-09-21T14:16:53.337Z,1.13
2022-09-21T14:23:37.698Z,1.20
2022-09-21T14:30:25.684Z,3.17
2022-09-21T14:37:30.374Z,1.48
2022-09-21T14:44:23.359Z,1.38
2022-09-21T14:51:38.516Z,3.20
2022-09-21T14:58:24.121Z,1.90
2022-09-21T15:05:27.793Z,1.35
2022-09-21T15:12:38.166Z,1.27
2022-09-21T15:19:23.345Z,5.18
2022-09-21T15:26:10.216Z,1.30
2022-09-21T15:32:55.290Z,1.08
2022-09-21T15:39:37.728Z,1.15
2022-09-21T15:46:20.151Z,1.15
2022-09-21T15:53:14.804Z,1.55
2022-09-21T15:59:57.308Z,14.30
2022-09-21T16:06:41.579Z,1.08
2022-09-21T16:13:43.515Z,1.85
2022-09-21T16:20:47.930Z,1.10
2022-09-21T16:27:32.726Z,1.52
2022-09-21T16:34:32.938Z,1.83
2022-09-21T16:41:15.714Z,1.40
2022-09-21T16:47:59.361Z,1.80
2022-09-21T16:54:41.687Z,3.67
2022-09-21T17:01:25.690Z,1.00
2022-09-21T17:08:10.036Z,1.50
2022-09-21T17:14:52.771Z,1.10
2022-09-21T17:21:35.135Z,1.90
2022-09-21T17:28:26.083Z,1.60
2022-09-21T17:35:18.727Z,2.40
2022-09-21T17:42:04.648Z,3.33
2022-09-21T17:48:47.187Z,3.92
2022-09-21T17:55:30.314Z,3.08
2022-09-21T18:02:39.595Z,3.25
2022-09-21T18:09:22.556Z,4.13
2022-09-21T18:16:22.233Z,2.88
2022-09-21T18:23:32.749Z,3.70
2022-09-21T18:30:17.380Z,2.78
2022-09-21T18:37:12.656Z,6.13
2022-09-21T18:44:16.216Z,3.03
2022-09-21T18:51:31.986Z,3.10
2022-09-21T18:58:15.948Z,2.83
2022-09-21T19:04:59.103Z,2.72
2022-09-21T19:11:46.270Z,2.45
2022-09-21T19:18:50.382Z,3.53
2022-09-21T19:25:53.199Z,3.00
2022-09-21T19:32:40.100Z,6.28
2022-09-21T19:39:22.797Z,3.55
2022-09-21T19:46:29.175Z,3.80
2022-09-21T19:53:31.281Z,3.75
2022-09-21T20:00:16.785Z,3.95
2022-09-21T20:07:05.433Z,7.05
2022-09-21T20:14:16.303Z,4.82
2022-09-21T20:20:58.803Z,3.95
2022-09-21T20:27:49.199Z,5.82
2022-09-21T20:34:31.726Z,4.28
2022-09-21T20:41:16.563Z,5.35
2022-09-21T20:48:12.815Z,4.75
2022-09-21T20:54:55.231Z,5.47
2022-09-21T21:01:37.661Z,4.55
2022-09-21T21:08:20.127Z,7.68
2022-09-21T21:15:04.540Z,5.03
2022-09-21T21:21:50.620Z,7.22
2022-09-21T21:28:34.377Z,5.70
2022-09-21T21:35:16.787Z,4.20
2022-09-21T21:41:59.082Z,6.65
2022-09-21T21:48:41.426Z,4.47
2022-09-21T21:55:23.989Z,8.70
2022-09-21T22:02:06.423Z,5.95
2022-09-21T22:08:49.644Z,4.95
2022-09-21T22:15:33.750Z,4.55
2022-09-21T22:22:16.052Z,5.47
2022-09-21T22:29:01.963Z,7.78
2022-09-21T22:35:44.281Z,8.32
2022-09-21T22:42:26.995Z,6.25
2022-09-21T22:49:09.654Z,8.73
2022-09-21T22:56:07.781Z,6.45
2022-09-21T23:02:54.271Z,7.38
2022-09-21T23:09:36.936Z,8.50
2022-09-21T23:16:20.107Z,6.35
2022-09-21T23:23:03.645Z,8.95
2022-09-21T23:29:46.330Z,7.93
2022-09-21T23:36:30.609Z,10.23
2022-09-21T23:43:13.383Z,8.70
2022-09-21T23:49:56.108Z,5.65
2022-09-21T23:56:39.336Z,6.57
